KNUW/NUW METAR and TAF weather

Enter ICAO airport designator
Station Type Date Time Source
KNUW METAR 2020/04/08 21:56 UTC NOAA

KNUW 082156Z 27007KT 10SM BKN250 13/05 A3032 RMK AO2 SLP268 T01330050 $


Station Type Date Time Source
KNUW Decoded METAR 2020/04/08 21:56 UTC NOAA

NAS WHIDBEY ISLAND, WA, United States (KNUW) 48-21N 122-39W 8M
Apr 08, 2020 - 05:56 PM EDT / 2020.04.08 2156 UTC
Wind: from the W (270 degrees) at 8 MPH (7 KT):0
Visibility: 10 mile(s):0
Sky conditions: mostly cloudy
Temperature: 55.9 F (13.3 C)
Dew Point: 41.0 F (5.0 C)
Relative Humidity: 57%
Pressure (altimeter): 30.32 in. Hg (1026 hPa)
ob: KNUW 082156Z 27007KT 10SM BKN250 13/05 A3032 RMK AO2 SLP268 T01330050
cycle: 22

Station Type Date Time Source
KNUW TAF 2020/04/08 15:54 UTC NOAA

TAF KNUW 0815/0915 VRB06KT 9999 FEW150 BKN250 QNH3034INS
FM081800 31008KT 9999 FEW030 FEW180 BKN250 QNH3025INS
FM090200 VRB06KT 9999 SCT250 QNH3019INS T15/0822Z T03/0912Z FS30004

Example: see airport list